Neuquen, Argentina
Current Conditions -  °F | °C
As of 8:00 PM on Friday 31 Oct 2014 (Local Time) from SAZN Reporting Station
Scattered Clouds Scattered Clouds  
Wind Chill: 16°   Ceiling: Unl
Heat Index: 16°   Visibility: 6mi
Dew Point: -5°   Wind: 15mph
Humidity: 23%   Direction: 140°SE
Pressure: 30.09"   Gusts: NA
Location:  38.95°S, 68.06°W
Report Text: SAZN 312300Z 14013KT 9999 SCT050 FEW20016/M05 Q1019
Loading
Personal Weather Stations






























Interactive Weather Map
Tropical Storm Tracking
New forecast layout! Learn more

10-Day Weather Forecast

Advertisements
Track Severe Weather on mobile